Time;durP1;ratioP1;P1;durP2;ratioP2;P2;SDS_P1;SDS_P2;PMS_P1;PMS_P2;Temp;Humidity;BMP_temperature;BMP_pressure;BME280_temperature;BME280_humidity;BME280_pressure;Samples;Min_cycle;Max_cycle;Signal;HPM_P1;HPM_P2
2021/11/24 00:00:07;;;;;;;;;;;;;;;15.63;100.00;102672.50;5085657;28;19939;-59
2021/11/24 00:02:32;;;;;;;;;;;;;;;15.71;100.00;102674.28;5053838;28;20268;-58
2021/11/24 00:04:57;;;;;;;;;;;;;;;15.76;100.00;102682.66;5090243;28;19917;-59
2021/11/24 00:07:23;;;;;;;;;;;;;;;15.77;100.00;102676.25;5052604;28;19921;-60
2021/11/24 00:09:48;;;;;;;;;;;;;;;15.77;100.00;102673.53;5085397;28;20054;-60
2021/11/24 00:12:14;;;;;;;;;;;;;;;15.76;100.00;102670.00;5053628;28;20261;-59
2021/11/24 00:14:39;;;;;;;;;;;;;;;15.72;100.00;102674.09;5085254;28;19920;-58
2021/11/24 00:17:05;;;;;;;;;;;;;;;15.75;100.00;102675.59;5051552;28;20363;-58
2021/11/24 00:19:30;;;;;;;;;;;;;;;15.77;100.00;102668.16;5052836;28;19912;-59
2021/11/24 00:21:56;;;;;;;;;;;;;;;15.76;100.00;102674.56;5051384;28;20325;-58
2021/11/24 00:24:21;;;;;;;;;;;;;;;15.76;100.00;102671.88;5085008;28;19919;-59
2021/11/24 00:26:47;;;;;;;;;;;;;;;15.77;100.00;102670.84;5084746;28;19921;-59
2021/11/24 00:29:12;;;;;;;;;;;;;;;15.70;100.00;102669.91;5051618;28;19928;-59
2021/11/24 00:31:37;;;;;;;;;;;;;;;15.65;100.00;102661.53;5051281;28;20356;-58
2021/11/24 00:34:03;;;;;;;;;;;;;;;15.61;100.00;102667.28;5084866;28;20257;-58
2021/11/24 00:36:28;;;;;;;;;;;;;;;15.63;100.00;102675.22;5052554;28;19920;-59
2021/11/24 00:38:54;;;;;;;;;;;;;;;15.57;100.00;102668.69;5054352;28;19997;-60
2021/11/24 00:41:19;;;;;;;;;;;;;;;15.62;100.00;102668.97;5057460;28;19913;-56
2021/11/24 00:43:44;;;;;;;;;;;;;;;15.44;100.00;102671.16;5089132;28;19921;-59
2021/11/24 00:46:10;;;;;;;;;;;;;;;15.35;100.00;102667.72;5055432;28;20369;-61
2021/11/24 00:48:35;;;;;;;;;;;;;;;15.38;100.00;102661.13;5055446;28;19924;-59
2021/11/24 00:51:01;;;;;;;;;;;;;;;15.42;100.00;102654.34;5056165;28;19920;-59
2021/11/24 00:53:26;;;;;;;;;;;;;;;15.37;100.00;102660.28;5056818;28;20014;-58
2021/11/24 00:55:51;;;;;;;;;;;;;;;15.49;100.00;102656.13;5056769;28;19921;-59
2021/11/24 00:58:18;;;;;;;;;;;;;;;15.50;100.00;102665.06;5056189;28;20260;-59
2021/11/24 01:00:43;;;;;;;;;;;;;;;15.43;100.00;102653.31;5056289;28;19925;-59
2021/11/24 01:03:09;;;;;;;;;;;;;;;15.51;100.00;102645.16;5056603;28;19927;-59
2021/11/24 01:05:35;;;;;;;;;;;;;;;15.61;100.00;102648.41;5055952;28;19916;-60
2021/11/24 01:08:00;;;;;;;;;;;;;;;15.61;100.00;102643.03;5056634;28;19935;-58
2021/11/24 01:10:25;;;;;;;;;;;;;;;15.48;100.00;102645.53;5055935;28;20337;-59
2021/11/24 01:12:51;;;;;;;;;;;;;;;15.43;100.00;102645.22;5054696;28;19917;-58
2021/11/24 01:15:17;;;;;;;;;;;;;;;15.45;100.00;102640.47;5055881;28;20007;-59
2021/11/24 01:17:43;;;;;;;;;;;;;;;15.55;100.00;102635.69;5055883;28;19996;-59
2021/11/24 01:20:09;;;;;;;;;;;;;;;15.60;100.00;102640.53;5055818;28;19959;-59
2021/11/24 01:22:34;;;;;;;;;;;;;;;15.66;100.00;102644.31;5055608;28;19917;-58
2021/11/24 01:25:00;;;;;;;;;;;;;;;15.67;100.00;102635.19;5056023;28;19927;-59
2021/11/24 01:27:25;;;;;;;;;;;;;;;15.71;100.00;102633.84;5055899;28;19920;-58
2021/11/24 01:29:51;;;;;;;;;;;;;;;15.71;100.00;102636.53;5055834;28;20366;-59
2021/11/24 01:32:16;;;;;;;;;;;;;;;15.67;100.00;102640.59;5088314;28;19963;-58
2021/11/24 01:34:41;;;;;;;;;;;;;;;15.66;100.00;102636.22;5055753;28;20341;-58
2021/11/24 01:37:07;;;;;;;;;;;;;;;15.66;100.00;102631.69;5087901;28;19921;-59
2021/11/24 01:39:32;;;;;;;;;;;;;;;15.71;100.00;102633.84;5070755;28;19927;-58
2021/11/24 01:41:58;;;;;;;;;;;;;;;15.74;100.00;102633.47;5055258;28;20015;-58
2021/11/24 01:44:24;;;;;;;;;;;;;;;15.49;100.00;102637.25;5054288;28;19916;-59
2021/11/24 01:46:51;;;;;;;;;;;;;;;15.50;100.00;102632.69;5055628;28;20000;-58
2021/11/24 01:49:16;;;;;;;;;;;;;;;15.51;100.00;102628.97;5055267;28;19916;-58
2021/11/24 01:51:42;;;;;;;;;;;;;;;15.46;100.00;102632.22;5087679;28;20174;-58
2021/11/24 01:54:07;;;;;;;;;;;;;;;15.37;100.00;102624.41;5055084;28;19986;-58
2021/11/24 01:56:32;;;;;;;;;;;;;;;15.47;100.00;102625.81;5055575;28;19916;-58
2021/11/24 01:58:58;;;;;;;;;;;;;;;15.42;100.00;102628.22;5054992;28;19917;-59
2021/11/24 02:01:23;;;;;;;;;;;;;;;15.45;100.00;102624.31;5055210;28;19944;-59
2021/11/24 02:03:49;;;;;;;;;;;;;;;15.39;100.00;102622.34;5054790;28;19964;-59
2021/11/24 02:06:14;;;;;;;;;;;;;;;15.40;100.00;102621.34;5054932;28;19917;-59
2021/11/24 02:08:39;;;;;;;;;;;;;;;15.45;100.00;102621.59;5055429;28;19947;-59
2021/11/24 02:11:05;;;;;;;;;;;;;;;15.48;100.00;102616.69;5054687;28;19928;-58
2021/11/24 02:13:30;;;;;;;;;;;;;;;15.37;100.00;102610.91;5070515;28;20057;-58
2021/11/24 02:15:55;;;;;;;;;;;;;;;15.31;100.00;102607.94;5054889;28;19939;-59
2021/11/24 02:18:21;;;;;;;;;;;;;;;15.37;100.00;102610.91;5054714;28;20019;-59
2021/11/24 02:20:47;;;;;;;;;;;;;;;15.36;100.00;102599.31;5053656;28;20253;-59
2021/11/24 02:23:14;;;;;;;;;;;;;;;15.42;100.00;102595.03;5054807;28;19916;-59
2021/11/24 02:25:40;;;;;;;;;;;;;;;15.39;100.00;102593.56;5053787;28;19967;-59
2021/11/24 02:28:06;;;;;;;;;;;;;;;15.39;100.00;102581.91;5053220;28;19932;-60
2021/11/24 02:30:32;;;;;;;;;;;;;;;15.33;100.00;102584.34;5069985;28;19921;-56
2021/11/24 02:32:57;;;;;;;;;;;;;;;15.25;100.00;102587.13;5087113;28;19928;-58
2021/11/24 02:35:23;;;;;;;;;;;;;;;15.19;100.00;102574.38;5053976;28;20059;-59
2021/11/24 02:37:48;;;;;;;;;;;;;;;15.11;100.00;102583.41;5055759;28;19921;-59
2021/11/24 02:40:14;;;;;;;;;;;;;;;14.94;100.00;102581.88;5088136;28;20226;-59
2021/11/24 02:42:40;;;;;;;;;;;;;;;14.97;100.00;102568.84;5054168;28;19921;-59
2021/11/24 02:45:06;;;;;;;;;;;;;;;14.91;100.00;102570.44;5054379;28;20266;-58
2021/11/24 02:47:31;;;;;;;;;;;;;;;14.87;100.00;102568.28;5053892;28;19920;-58
2021/11/24 02:50:00;;;;;;;;;;;;;;;14.72;100.00;102563.69;5054167;28;19955;-60
2021/11/24 02:52:25;;;;;;;;;;;;;;;14.75;100.00;102560.63;5054293;28;20023;-60
2021/11/24 02:54:55;;;;;;;;;;;;;;;14.72;100.00;102560.16;5053835;28;19956;-58
2021/11/24 02:57:28;;;;;;;;;;;;;;;14.65;100.00;102546.53;5053859;28;19939;-59
2021/11/24 02:59:53;;;;;;;;;;;;;;;14.58;100.00;102538.34;5054668;28;19925;-59
2021/11/24 03:02:19;;;;;;;;;;;;;;;14.49;100.00;102534.88;5053549;28;20432;-61
2021/11/24 03:04:44;;;;;;;;;;;;;;;14.36;100.00;102523.88;5053665;28;20319;-59
2021/11/24 03:07:09;;;;;;;;;;;;;;;14.22;100.00;102530.03;5053833;28;20011;-58
2021/11/24 03:09:35;;;;;;;;;;;;;;;14.28;100.00;102532.84;5054315;28;20381;-59
2021/11/24 03:12:00;;;;;;;;;;;;;;;14.16;100.00;102529.75;5053640;28;20368;-59
2021/11/24 03:14:26;;;;;;;;;;;;;;;14.31;100.00;102510.97;5054060;28;19935;-59
2021/11/24 03:16:51;;;;;;;;;;;;;;;14.17;100.00;102515.28;5053515;28;19932;-58
2021/11/24 03:19:16;;;;;;;;;;;;;;;14.23;100.00;102508.34;5053421;28;19921;-59
2021/11/24 03:21:41;;;;;;;;;;;;;;;14.08;100.00;102510.13;5053609;28;19955;-58
2021/11/24 03:24:07;;;;;;;;;;;;;;;14.28;100.00;102494.31;5085470;28;19927;-59
2021/11/24 03:26:32;;;;;;;;;;;;;;;14.25;100.00;102490.16;5053738;28;19927;-59
2021/11/24 03:28:58;;;;;;;;;;;;;;;14.12;100.00;102506.03;5053622;28;20336;-59
2021/11/24 03:31:23;;;;;;;;;;;;;;;13.96;100.00;102496.22;5053992;28;20004;-59
2021/11/24 03:33:49;;;;;;;;;;;;;;;13.89;100.00;102496.94;5053102;28;19921;-59
2021/11/24 03:36:15;;;;;;;;;;;;;;;14.03;100.00;102492.66;5053781;28;19921;-59
2021/11/24 03:38:40;;;;;;;;;;;;;;;14.00;100.00;102500.25;5053350;28;19970;-56
2021/11/24 03:41:05;;;;;;;;;;;;;;;14.17;100.00;102482.97;5085368;28;20003;-59
2021/11/24 03:43:31;;;;;;;;;;;;;;;14.24;100.00;102479.56;5053583;28;19927;-58
2021/11/24 03:45:56;;;;;;;;;;;;;;;14.18;100.00;102478.41;5053297;28;19916;-58
2021/11/24 03:48:22;;;;;;;;;;;;;;;14.13;100.00;102476.28;5087760;28;19917;-59
2021/11/24 03:50:47;;;;;;;;;;;;;;;14.09;100.00;102485.75;5086245;28;19941;-58
2021/11/24 03:53:12;;;;;;;;;;;;;;;13.89;100.00;102488.03;5053174;28;19929;-58
2021/11/24 03:55:38;;;;;;;;;;;;;;;13.67;100.00;102482.44;5051856;28;20015;-59
2021/11/24 03:58:03;;;;;;;;;;;;;;;13.75;100.00;102492.31;5053091;28;19919;-59
2021/11/24 04:00:29;;;;;;;;;;;;;;;13.81;100.00;102483.53;5052820;28;19917;-59
2021/11/24 04:02:55;;;;;;;;;;;;;;;13.60;100.00;102484.97;5053408;28;19978;-58
2021/11/24 04:05:21;;;;;;;;;;;;;;;13.73;100.00;102483.59;5085920;28;19944;-59
2021/11/24 04:07:47;;;;;;;;;;;;;;;13.75;100.00;102479.72;5053482;28;19956;-58
2021/11/24 04:10:13;;;;;;;;;;;;;;;13.81;100.00;102478.16;5086096;28;19960;-59
2021/11/24 04:12:42;;;;;;;;;;;;;;;14.00;100.00;102486.78;5053814;28;19963;-58
2021/11/24 04:15:07;;;;;;;;;;;;;;;14.03;100.00;102476.53;5057789;28;19920;-60
2021/11/24 04:17:33;;;;;;;;;;;;;;;13.94;100.00;102466.81;5057817;28;19925;-59
2021/11/24 04:19:58;;;;;;;;;;;;;;;13.91;100.00;102465.34;5090950;28;19921;-58
2021/11/24 04:22:24;;;;;;;;;;;;;;;13.78;100.00;102470.44;5057468;28;20018;-59
2021/11/24 04:24:49;;;;;;;;;;;;;;;14.00;100.00;102454.50;5057531;28;19921;-60
2021/11/24 04:27:14;;;;;;;;;;;;;;;13.99;100.00;102453.69;5058629;28;20380;-58
2021/11/24 04:29:41;;;;;;;;;;;;;;;13.97;100.00;102452.19;5057323;28;19917;-59
2021/11/24 04:32:07;;;;;;;;;;;;;;;14.06;100.00;102443.03;5057529;28;19967;-59
2021/11/24 04:34:32;;;;;;;;;;;;;;;14.19;100.00;102442.47;5057171;28;19921;-57
2021/11/24 04:36:58;;;;;;;;;;;;;;;14.23;100.00;102445.59;5057345;28;19916;-59
2021/11/24 04:39:23;;;;;;;;;;;;;;;14.28;100.00;102438.66;5057273;28;20356;-59
2021/11/24 04:41:49;;;;;;;;;;;;;;;14.25;100.00;102435.50;5057254;28;19917;-58
2021/11/24 04:44:14;;;;;;;;;;;;;;;14.22;100.00;102434.03;5057291;28;20341;-59
2021/11/24 04:46:39;;;;;;;;;;;;;;;14.30;100.00;102430.41;5057815;28;19941;-58
2021/11/24 04:49:05;;;;;;;;;;;;;;;14.38;100.00;102426.81;5057531;28;19999;-60
2021/11/24 04:51:31;;;;;;;;;;;;;;;14.41;100.00;102423.75;5089107;28;19920;-59
2021/11/24 04:53:57;;;;;;;;;;;;;;;14.48;100.00;102420.16;5056803;28;19920;-60
2021/11/24 04:56:22;;;;;;;;;;;;;;;14.57;100.00;102422.78;5057318;28;19977;-59
2021/11/24 04:58:58;;;;;;;;;;;;;;;14.61;100.00;102422.22;5057347;28;19924;-57
2021/11/24 05:01:23;;;;;;;;;;;;;;;14.61;100.00;102422.22;5056125;28;19925;-59
2021/11/24 05:03:49;;;;;;;;;;;;;;;14.65;100.00;102413.75;5089735;28;19924;-56
2021/11/24 05:06:16;;;;;;;;;;;;;;;14.61;100.00;102419.50;5057525;28;20050;-59
2021/11/24 05:08:41;;;;;;;;;;;;;;;14.63;100.00;102413.97;5072479;28;20376;-58
2021/11/24 05:11:07;;;;;;;;;;;;;;;14.65;100.00;102417.31;5089660;28;19923;-58
2021/11/24 05:13:33;;;;;;;;;;;;;;;14.64;100.00;102418.31;5056592;28;20296;-58
2021/11/24 05:16:03;;;;;;;;;;;;;;;14.67;100.00;102411.75;5056680;28;19921;-58
2021/11/24 05:18:34;;;;;;;;;;;;;;;14.63;100.00;102413.97;5056672;28;19928;-59
2021/11/24 05:21:06;;;;;;;;;;;;;;;14.71;100.00;102418.47;5056941;28;19921;-59
2021/11/24 05:23:36;;;;;;;;;;;;;;;14.67;100.00;102411.75;5056598;28;19962;-59
2021/11/24 05:26:02;;;;;;;;;;;;;;;14.34;100.00;102407.50;5055482;28;19920;-59
2021/11/24 05:28:28;;;;;;;;;;;;;;;14.37;100.00;102415.22;5056754;28;20353;-58
2021/11/24 05:30:53;;;;;;;;;;;;;;;14.42;100.00;102410.13;5056432;28;19966;-59
2021/11/24 05:33:18;;;;;;;;;;;;;;;14.59;100.00;102404.59;5056176;28;20428;-60
2021/11/24 05:35:44;;;;;;;;;;;;;;;14.63;100.00;102417.47;5056347;28;19916;-60
2021/11/24 05:38:09;;;;;;;;;;;;;;;14.67;100.00;102412.56;5088428;28;20391;-58
2021/11/24 05:40:34;;;;;;;;;;;;;;;14.63;100.00;102412.09;5088335;28;19944;-59
2021/11/24 05:43:00;;;;;;;;;;;;;;;14.59;100.00;102413.47;5088498;28;19982;-59
2021/11/24 05:48:06;;;;;;;;;;;;;;;14.51;100.00;102401.97;5056099;28;19956;-59
2021/11/24 05:50:31;;;;;;;;;;;;;;;14.44;100.00;102397.31;5056046;28;20281;-59
2021/11/24 05:52:57;;;;;;;;;;;;;;;14.56;100.00;102394.19;5055826;28;19917;-59
2021/11/24 05:55:23;;;;;;;;;;;;;;;14.29;100.00;102391.06;5088868;28;20357;-59
2021/11/24 05:57:48;;;;;;;;;;;;;;;14.61;100.00;102391.78;5055530;28;19966;-59
2021/11/24 06:00:14;;;;;;;;;;;;;;;14.69;100.00;102386.28;5055838;28;20315;-57
2021/11/24 06:02:40;;;;;;;;;;;;;;;14.74;100.00;102386.59;5055740;28;19916;-59
2021/11/24 06:05:06;;;;;;;;;;;;;;;14.83;100.00;102384.66;5088289;28;19920;-59
2021/11/24 06:07:31;;;;;;;;;;;;;;;14.89;100.00;102383.94;5055563;28;19966;-59
2021/11/24 06:09:56;;;;;;;;;;;;;;;14.91;100.00;102381.03;5054788;28;19927;-59
2021/11/24 06:12:22;;;;;;;;;;;;;;;14.93;100.00;102378.97;5055135;28;20253;-60
2021/11/24 06:14:47;;;;;;;;;;;;;;;14.94;100.00;102377.97;5057827;28;20262;-60
2021/11/24 06:17:12;;;;;;;;;;;;;;;14.93;100.00;102376.28;5096588;28;20003;-59
2021/11/24 06:19:38;;;;;;;;;;;;;;;14.96;100.00;102378.59;5054509;28;19917;-59
2021/11/24 06:22:08;;;;;;;;;;;;;;;14.95;100.00;102382.31;5055552;28;19913;-59
2021/11/24 06:24:34;;;;;;;;;;;;;;;14.98;100.00;102373.84;5055155;28;19958;-60
2021/11/24 06:26:59;;;;;;;;;;;;;;;14.93;100.00;102373.59;5055421;28;20357;-62
2021/11/24 06:29:24;;;;;;;;;;;;;;;15.04;100.00;102364.19;5087671;28;19916;-59
2021/11/24 06:31:50;;;;;;;;;;;;;;;15.00;100.00;102366.44;5055222;28;20027;-59
2021/11/24 06:34:15;;;;;;;;;;;;;;;14.98;100.00;102365.78;5055208;28;20027;-59
2021/11/24 06:36:41;;;;;;;;;;;;;;;15.05;100.00;102365.88;5087139;28;19927;-60
2021/11/24 06:39:06;;;;;;;;;;;;;;;14.97;100.00;102366.81;5054841;28;19921;-59
2021/11/24 06:41:31;;;;;;;;;;;;;;;14.88;100.00;102359.84;5053515;28;20230;-60
2021/11/24 06:43:57;;;;;;;;;;;;;;;14.99;100.00;102353.16;5055000;28;20032;-59
2021/11/24 06:46:22;;;;;;;;;;;;;;;15.02;100.00;102359.00;5055359;28;19924;-60
2021/11/24 06:48:48;;;;;;;;;;;;;;;15.07;100.00;102363.00;5069861;28;19951;-58
2021/11/24 06:51:13;;;;;;;;;;;;;;;15.10;100.00;102359.94;5054796;28;19925;-59
2021/11/24 06:53:40;;;;;;;;;;;;;;;15.14;100.00;102361.22;5054564;28;19951;-59
2021/11/24 06:56:06;;;;;;;;;;;;;;;15.11;100.00;102358.91;5053431;28;20015;-59
2021/11/24 06:58:31;;;;;;;;;;;;;;;15.12;100.00;102360.56;5055788;28;19957;-59
2021/11/24 07:00:59;;;;;;;;;;;;;;;15.14;100.00;102363.91;5054294;28;19921;-60
2021/11/24 07:03:25;;;;;;;;;;;;;;;15.05;100.00;102361.34;5054348;28;19979;-60
2021/11/24 07:05:50;;;;;;;;;;;;;;;15.10;100.00;102366.13;5086883;28;19921;-59
2021/11/24 07:08:15;;;;;;;;;;;;;;;15.13;100.00;102371.16;5055081;28;19923;-59
2021/11/24 07:10:41;;;;;;;;;;;;;;;15.15;100.00;102360.19;5086494;28;19923;-59
2021/11/24 07:13:06;;;;;;;;;;;;;;;15.13;100.00;102367.63;5053975;28;19916;-59
2021/11/24 07:15:33;;;;;;;;;;;;;;;15.19;100.00;102370.41;5053603;28;19917;-60
2021/11/24 07:17:58;;;;;;;;;;;;;;;15.03;100.00;102368.78;5054741;28;20019;-59
2021/11/24 07:20:24;;;;;;;;;;;;;;;15.18;100.00;102367.88;5054766;28;19967;-59
2021/11/24 07:22:50;;;;;;;;;;;;;;;15.10;100.00;102366.13;5054538;28;20012;-60
2021/11/24 07:25:15;;;;;;;;;;;;;;;15.18;100.00;102366.03;5086425;28;20331;-60
2021/11/24 07:27:41;;;;;;;;;;;;;;;15.00;100.00;102358.38;5053772;28;19917;-64
2021/11/24 07:30:07;;;;;;;;;;;;;;;14.80;100.00;102359.97;5055088;28;19913;-59
2021/11/24 07:32:32;;;;;;;;;;;;;;;14.88;100.00;102363.41;5086252;28;20343;-59
2021/11/24 07:34:58;;;;;;;;;;;;;;;14.39;100.00;102358.50;5086314;28;19917;-59
2021/11/24 07:37:23;;;;;;;;;;;;;;;14.41;100.00;102357.31;5086662;28;19921;-60
2021/11/24 07:39:49;;;;;;;;;;;;;;;14.29;100.00;102348.00;5053990;28;19928;-60
2021/11/24 07:42:14;;;;;;;;;;;;;;;14.60;100.00;102352.41;5053635;28;20398;-59
2021/11/24 07:44:39;;;;;;;;;;;;;;;14.47;100.00;102348.50;5086321;28;19924;-59
2021/11/24 07:47:05;;;;;;;;;;;;;;;14.59;100.00;102346.19;5053294;28;20385;-60
2021/11/24 07:49:30;;;;;;;;;;;;;;;14.70;100.00;102352.13;5086103;28;20289;-59
2021/11/24 07:51:56;;;;;;;;;;;;;;;14.67;100.00;102342.56;5086090;28;19924;-60
2021/11/24 07:54:21;;;;;;;;;;;;;;;14.81;100.00;102340.09;5053860;28;19927;-60
2021/11/24 07:56:47;;;;;;;;;;;;;;;14.98;100.00;102338.84;5053517;28;20230;-59
2021/11/24 07:59:12;;;;;;;;;;;;;;;14.83;100.00;102338.03;5086089;28;19920;-59
2021/11/24 08:01:37;;;;;;;;;;;;;;;15.00;100.00;102336.81;5053389;28;20359;-58
2021/11/24 08:04:03;;;;;;;;;;;;;;;14.89;100.00;102334.59;5053456;28;19925;-60
2021/11/24 08:06:28;;;;;;;;;;;;;;;15.04;100.00;102339.94;5053403;28;19917;-60
2021/11/24 08:08:54;;;;;;;;;;;;;;;14.81;100.00;102337.41;5054041;28;19927;-59
2021/11/24 08:11:19;;;;;;;;;;;;;;;14.88;100.00;102332.94;5053160;28;19921;-59
2021/11/24 08:13:44;;;;;;;;;;;;;;;14.60;100.00;102328.19;5053817;28;19916;-59
2021/11/24 08:16:10;;;;;;;;;;;;;;;14.44;100.00;102330.03;5068977;28;19916;-59
2021/11/24 08:18:35;;;;;;;;;;;;;;;14.34;100.00;102326.78;5053853;28;19921;-59
2021/11/24 08:21:00;;;;;;;;;;;;;;;14.62;100.00;102315.38;5054013;28;20004;-59
2021/11/24 08:23:26;;;;;;;;;;;;;;;14.43;100.00;102316.75;5069089;28;19921;-59
2021/11/24 08:25:51;;;;;;;;;;;;;;;14.38;100.00;102313.78;5053759;28;19967;-60
2021/11/24 08:28:17;;;;;;;;;;;;;;;14.60;100.00;102312.03;5085532;28;20372;-59
2021/11/24 08:30:43;;;;;;;;;;;;;;;14.41;100.00;102311.56;5052818;28;20029;-59
2021/11/24 08:33:08;;;;;;;;;;;;;;;14.49;100.00;102307.94;5053570;28;19916;-59
2021/11/24 08:35:33;;;;;;;;;;;;;;;14.36;100.00;102308.59;5053092;28;20015;-60
2021/11/24 08:37:59;;;;;;;;;;;;;;;14.47;100.00;102305.41;5085629;28;19920;-59
2021/11/24 08:40:25;;;;;;;;;;;;;;;14.44;100.00;102303.09;5057336;28;20284;-59
2021/11/24 08:42:50;;;;;;;;;;;;;;;14.43;100.00;102300.63;5054890;28;19927;-59
2021/11/24 08:45:15;;;;;;;;;;;;;;;14.43;100.00;102304.13;5053828;28;19921;-54
2021/11/24 08:47:41;;;;;;;;;;;;;;;14.40;100.00;102299.13;5052916;28;20356;-59
2021/11/24 08:50:08;;;;;;;;;;;;;;;14.48;100.00;102296.31;5054235;28;19921;-59
2021/11/24 08:52:35;;;;;;;;;;;;;;;14.63;100.00;102292.81;5053654;28;19968;-60
2021/11/24 08:55:00;;;;;;;;;;;;;;;14.44;100.00;102289.66;5053200;28;19916;-59
2021/11/24 08:57:26;;;;;;;;;;;;;;;14.09;100.00;102297.44;5053384;28;19927;-58
2021/11/24 08:59:51;;;;;;;;;;;;;;;13.96;100.00;102294.53;5054897;28;19927;-59
2021/11/24 09:02:16;;;;;;;;;;;;;;;14.23;100.00;102297.63;5056698;28;19927;-60
2021/11/24 09:04:42;;;;;;;;;;;;;;;14.44;100.00;102283.44;5056715;28;19913;-60
2021/11/24 09:07:07;;;;;;;;;;;;;;;14.32;100.00;102281.19;5089310;28;19921;-60
2021/11/24 09:09:35;;;;;;;;;;;;;;;14.28;100.00;102281.75;5055678;28;20380;-59
2021/11/24 09:12:00;;;;;;;;;;;;;;;14.37;100.00;102279.81;5056710;28;19968;-61
2021/11/24 09:14:26;;;;;;;;;;;;;;;14.25;100.00;102279.44;5088827;28;19917;-59
2021/11/24 09:16:51;;;;;;;;;;;;;;;13.97;100.00;102282.75;5056815;28;19913;-59
2021/11/24 09:19:17;;;;;;;;;;;;;;;14.04;100.00;102276.44;5056120;28;19920;-59
2021/11/24 09:21:42;;;;;;;;;;;;;;;13.94;100.00;102277.72;5072808;28;19920;-60
2021/11/24 09:24:13;;;;;;;;;;;;;;;14.05;100.00;102274.59;5056369;28;19921;-59
2021/11/24 09:26:42;;;;;;;;;;;;;;;13.91;100.00;102279.78;5056550;28;19948;-58
2021/11/24 09:29:08;;;;;;;;;;;;;;;14.33;100.00;102271.28;5056756;28;19917;-58
2021/11/24 09:31:34;;;;;;;;;;;;;;;13.98;100.00;102273.66;5056596;28;19928;-58
2021/11/24 09:33:59;;;;;;;;;;;;;;;13.88;100.00;102277.44;5056593;28;19917;-59
2021/11/24 09:36:25;;;;;;;;;;;;;;;13.72;100.00;102267.66;5056150;28;19917;-58
2021/11/24 09:38:51;;;;;;;;;;;;;;;13.90;100.00;102272.72;5055886;28;19916;-60
2021/11/24 09:41:21;;;;;;;;;;;;;;;13.59;100.00;102262.06;5056507;28;19923;-60
2021/11/24 09:43:48;;;;;;;;;;;;;;;13.77;100.00;102259.06;5055813;28;19943;-60
2021/11/24 09:46:15;;;;;;;;;;;;;;;14.07;100.00;102261.81;5055888;28;19927;-61
2021/11/24 09:48:42;;;;;;;;;;;;;;;14.49;100.00;102264.88;5088328;28;19916;-59
2021/11/24 09:51:07;;;;;;;;;;;;;;;14.30;100.00;102260.88;5056473;28;19924;-59
2021/11/24 09:53:34;;;;;;;;;;;;;;;13.83;100.00;102250.25;5088190;28;19925;-60
2021/11/24 09:55:59;;;;;;;;;;;;;;;14.09;100.00;102251.69;5093381;28;20016;-59
2021/11/24 09:58:25;;;;;;;;;;;;;;;13.99;100.00;102260.03;5058562;28;19971;-59
2021/11/24 10:00:50;;;;;;;;;;;;;;;13.86;100.00;102238.31;5056028;28;19923;-59
2021/11/24 10:03:17;;;;;;;;;;;;;;;14.10;100.00;102234.53;5057363;28;20383;-61
2021/11/24 10:05:44;;;;;;;;;;;;;;;14.20;100.00;102234.28;5055777;28;20345;-59
2021/11/24 10:08:10;;;;;;;;;;;;;;;14.52;100.00;102236.72;5055856;28;19956;-59
2021/11/24 10:10:35;;;;;;;;;;;;;;;14.49;100.00;102237.97;5055222;28;19955;-59
2021/11/24 10:13:01;;;;;;;;;;;;;;;14.46;100.00;102238.34;5055370;28;19921;-60
2021/11/24 10:15:34;;;;;;;;;;;;;;;14.73;100.00;102228.75;5054186;28;19932;-59
2021/11/24 10:18:12;;;;;;;;;;;;;;;14.79;100.00;102227.16;5056014;28;19931;-60
2021/11/24 10:20:56;;;;;;;;;;;;;;;14.42;100.00;102223.59;5055693;28;19916;-60
2021/11/24 10:23:22;;;;;;;;;;;;;;;14.48;100.00;102222.84;5055340;28;20011;-60
2021/11/24 10:25:48;;;;;;;;;;;;;;;14.74;100.00;102216.13;5055090;28;19956;-59
2021/11/24 10:28:24;;;;;;;;;;;;;;;14.56;100.00;102211.94;5055161;28;19971;-59
2021/11/24 10:30:54;;;;;;;;;;;;;;;14.76;100.00;102206.00;5054665;28;19930;-59
2021/11/24 10:33:20;;;;;;;;;;;;;;;14.83;100.00;102208.78;5055542;28;19921;-59
2021/11/24 10:36:01;;;;;;;;;;;;;;;14.33;100.00;102206.69;5055327;28;20415;-59
2021/11/24 10:38:26;;;;;;;;;;;;;;;14.47;100.00;102200.44;5054979;28;20007;-59
2021/11/24 10:40:51;;;;;;;;;;;;;;;14.73;100.00;102196.44;5055426;28;19952;-59
2021/11/24 10:43:17;;;;;;;;;;;;;;;14.62;100.00;102191.53;5055355;28;19924;-59
2021/11/24 10:45:55;;;;;;;;;;;;;;;14.67;100.00;102188.28;5054974;28;19917;-59
2021/11/24 10:48:25;;;;;;;;;;;;;;;14.42;100.00;102178.66;5054817;28;19916;-58
2021/11/24 10:50:50;;;;;;;;;;;;;;;14.39;100.00;102172.81;5053184;28;19917;-59
2021/11/24 10:53:19;;;;;;;;;;;;;;;14.67;100.00;102170.25;5055837;28;19916;-60
2021/11/24 10:55:44;;;;;;;;;;;;;;;14.95;100.00;102172.22;5054820;28;19917;-60
2021/11/24 10:58:24;;;;;;;;;;;;;;;15.11;100.00;102164.91;5060197;28;19996;-60
2021/11/24 11:00:56;;;;;;;;;;;;;;;15.00;100.00;102163.56;5054977;28;19917;-59
2021/11/24 11:03:44;;;;;;;;;;;;;;;15.01;100.00;102155.31;5054853;28;20356;-60
2021/11/24 11:06:25;;;;;;;;;;;;;;;15.11;100.00;102151.44;5053637;28;19920;-60
2021/11/24 11:08:57;;;;;;;;;;;;;;;15.39;100.00;102147.94;5054641;28;20111;-60
2021/11/24 11:11:30;;;;;;;;;;;;;;;15.52;100.00;102148.03;5054605;28;19924;-60
2021/11/24 11:14:12;;;;;;;;;;;;;;;15.68;100.00;102137.97;5057934;28;19923;-60
2021/11/24 11:16:44;;;;;;;;;;;;;;;15.83;100.00;102137.88;5064833;28;20062;-59
2021/11/24 11:19:10;;;;;;;;;;;;;;;15.82;100.00;102139.72;5059719;28;19921;-61
2021/11/24 11:21:36;;;;;;;;;;;;;;;15.95;100.00;102128.19;5061764;28;19916;-59
2021/11/24 11:24:08;;;;;;;;;;;;;;;15.46;100.00;102124.56;5066701;28;19924;-60
2021/11/24 11:26:33;;;;;;;;;;;;;;;15.52;100.00;102118.38;5066927;28;19943;-58
2021/11/24 11:28:59;;;;;;;;;;;;;;;15.66;100.00;102105.81;5066763;28;20019;-59
2021/11/24 11:31:28;;;;;;;;;;;;;;;15.87;100.00;102106.75;5066553;28;19921;-59
2021/11/24 11:33:55;;;;;;;;;;;;;;;15.85;100.00;102100.72;5065006;28;20345;-59
2021/11/24 11:36:21;;;;;;;;;;;;;;;15.94;100.00;102082.56;5065033;28;19952;-59
2021/11/24 11:38:48;;;;;;;;;;;;;;;15.96;100.00;102086.69;5064018;28;19928;-59
2021/11/24 11:41:15;;;;;;;;;;;;;;;15.74;100.00;102083.25;5065222;28;19920;-59
2021/11/24 11:43:44;;;;;;;;;;;;;;;15.70;100.00;102082.81;5065323;28;19995;-60
2021/11/24 11:46:13;;;;;;;;;;;;;;;15.63;100.00;102077.38;5062978;28;19925;-59
2021/11/24 11:48:39;;;;;;;;;;;;;;;15.43;100.00;102071.03;5059273;28;19947;-60
2021/11/24 11:51:05;;;;;;;;;;;;;;;15.62;100.00;102066.81;5056455;28;19920;-59
2021/11/24 11:53:33;;;;;;;;;;;;;;;15.15;100.00;102064.63;5087366;28;19927;-59
2021/11/24 11:56:05;;;;;;;;;;;;;;;15.43;100.00;102060.25;5087101;28;19913;-60
2021/11/24 11:58:30;;;;;;;;;;;;;;;15.25;100.00;102064.31;5054941;28;19916;-59
2021/11/24 12:01:06;;;;;;;;;;;;;;;15.23;100.00;102055.59;5053934;28;19923;-59
2021/11/24 12:03:50;;;;;;;;;;;;;;;15.27;100.00;102050.63;5053961;28;19924;-59
2021/11/24 12:06:15;;;;;;;;;;;;;;;15.50;100.00;102042.25;5087145;28;20015;-57
2021/11/24 12:09:00;;;;;;;;;;;;;;;15.75;100.00;102033.66;5087883;28;19972;-59
2021/11/24 12:11:25;;;;;;;;;;;;;;;15.78;100.00;102026.00;5086782;28;20007;-59
2021/11/24 12:13:51;;;;;;;;;;;;;;;15.78;100.00;102017.09;5052822;28;19963;-59
2021/11/24 12:16:35;;;;;;;;;;;;;;;15.96;100.00;102021.13;5052729;28;19960;-57
2021/11/24 12:19:13;;;;;;;;;;;;;;;15.89;100.00;102016.53;5054365;28;19963;-59
2021/11/24 12:21:52;;;;;;;;;;;;;;;16.06;100.00;102013.47;5086823;28;19917;-59
2021/11/24 12:24:17;;;;;;;;;;;;;;;16.26;100.00;102007.28;5054235;28;20015;-56
2021/11/24 12:26:55;;;;;;;;;;;;;;;16.27;100.00;102000.84;5054642;28;20012;-59